Chula Vista, CA (91911)

7:08 AM PDT on July 23, 2016 (GMT -0700)
805/Oleander | | Change Station

Elev 302 ft 32.61 °N, 117.03 °W | Updated 1 second ago

Overcast
Overcast
68.9 °F
Feels Like 68.9 °F
N
0.0
Wind Variable Wind from SSW

Today
High -- | Low -- °F
--% Chance of Precip.
Yesterday
High -- | Low -- °F
Precip. -- in
Pressure 29.83 in
Visibility 4.0 miles
Clouds Overcast 400 ft
Dew Point 67 °F
Humidity 94%
Rainfall 0.00 in
Snow Depth Not available.
5:56 AM 7:52 PM
Waning Gibbous, 85% visible
METAR KNRS 231356Z AUTO 00000KT 4SM BR OVC004 21/19 A2983 RMK AO2 SLP099 T02110189 $
Pressure 29.83 in
Visibility 4.0 miles
Clouds Overcast 400 ft
Dew Point 67 °F
Humidity 94%
Rainfall 0.00 in
Snow Depth Not available.
5:56 AM 7:52 PM
Waning Gibbous, 85% visible
METAR KNRS 231356Z AUTO 00000KT 4SM BR OVC004 21/19 A2983 RMK AO2 SLP099 T02110189 $

10-Day Weather Forecast

Almanac

Astronomy

Jul. 23, 2016 Rise Set
Actual Time
Civil Twilight
Nautical Twilight
Astronomical Twilight
Moon
Length of Visible Light
Length of Day
Tomorrow will be .
, % of the Moon is Illuminated

Today's Extremes

State Highs State Lows

Community

WunderPhotos

Upload Photos

1,926,821 photos uploaded!

WunderBlog® & News

Nearby

Air Quality

  Air Quality AQ Index Pollutant
Not available.

Snow Depth

Station Depth Elevation

Earthquake Activity

City Distance Mag. Time & Date
Minimum magnitude displayed is 2.5.

Coastal Water Temperatures

Place Temperature

Stations

Nearby Weather Stations

Station Location Temp. Windchill Dew Point Humidity Wind Precip. Elev Updated Type
                   

Watches & Warnings

There are currently no watches in effect.